createdAt,value
2019-05-21T00:01:29.658Z,8.40
2019-05-21T00:04:01.549Z,11.60
2019-05-21T00:06:34.494Z,8.45
2019-05-21T00:09:06.129Z,10.40
2019-05-21T00:11:38.341Z,9.13
2019-05-21T00:14:08.247Z,6.42
2019-05-21T00:16:38.043Z,8.78
2019-05-21T00:19:09.113Z,10.23
2019-05-21T00:21:38.911Z,8.88
2019-05-21T00:24:08.904Z,14.13
2019-05-21T00:26:38.698Z,9.70
2019-05-21T00:29:45.378Z,7.83
2019-05-21T00:32:51.104Z,8.98
2019-05-21T00:35:56.790Z,8.33
2019-05-21T00:39:03.559Z,12.60
2019-05-21T00:42:06.492Z,6.90
2019-05-21T00:44:42.205Z,8.83
2019-05-21T00:47:15.299Z,7.40
2019-05-21T00:49:45.091Z,10.70
2019-05-21T00:52:17.349Z,11.05
2019-05-21T00:54:47.155Z,7.35
2019-05-21T00:57:18.367Z,8.08
2019-05-21T00:59:48.453Z,12.25
2019-05-21T01:02:19.675Z,11.08
2019-05-21T01:05:00.886Z,10.85
2019-05-21T01:07:26.832Z,11.40
2019-05-21T01:10:02.080Z,8.83
2019-05-21T01:12:34.666Z,9.25
2019-05-21T01:15:06.262Z,7.25
2019-05-21T01:17:44.131Z,7.75
2019-05-21T01:20:15.491Z,14.28
2019-05-21T01:22:47.026Z,11.73
2019-05-21T01:25:16.829Z,8.45
2019-05-21T01:27:46.585Z,10.88
2019-05-21T01:30:17.645Z,9.50
2019-05-21T01:32:47.341Z,10.90
2019-05-21T01:35:17.626Z,7.50
2019-05-21T01:37:47.659Z,7.75
2019-05-21T01:40:19.982Z,9.65
2019-05-21T01:42:51.682Z,10.65
2019-05-21T01:45:21.245Z,10.08
2019-05-21T01:47:51.094Z,6.30
2019-05-21T01:50:20.838Z,6.70
2019-05-21T01:52:50.621Z,8.00
2019-05-21T01:55:20.447Z,7.83
2019-05-21T01:57:50.250Z,9.85
2019-05-21T02:00:20.174Z,8.58
2019-05-21T02:02:49.998Z,9.85
2019-05-21T02:05:32.115Z,11.57
2019-05-21T02:07:51.184Z,12.33
2019-05-21T02:10:24.644Z,11.35
2019-05-21T02:13:20.759Z,12.43
2019-05-21T02:15:51.944Z,17.02
2019-05-21T02:18:21.768Z,9.50
2019-05-21T02:20:51.597Z,9.25
2019-05-21T02:23:21.405Z,12.47
2019-05-21T02:25:51.313Z,12.75
2019-05-21T02:28:20.991Z,9.15
2019-05-21T02:30:56.250Z,9.30
2019-05-21T02:33:23.389Z,13.30
2019-05-21T02:35:55.634Z,11.25
2019-05-21T02:38:25.471Z,11.15
2019-05-21T02:40:56.690Z,11.10
2019-05-21T02:43:28.887Z,8.83
2019-05-21T02:45:58.718Z,13.70
2019-05-21T02:48:28.700Z,12.47
2019-05-21T02:51:01.508Z,10.78
2019-05-21T02:53:35.205Z,12.25
2019-05-21T02:56:07.462Z,13.78
2019-05-21T02:58:37.355Z,11.95
2019-05-21T03:01:17.955Z,12.35
2019-05-21T03:03:47.887Z,13.88
2019-05-21T03:06:17.677Z,16.32
2019-05-21T03:08:48.932Z,10.85
2019-05-21T03:11:19.126Z,10.35
2019-05-21T03:13:49.150Z,9.98
2019-05-21T03:16:21.454Z,15.30
2019-05-21T03:18:52.570Z,11.48
2019-05-21T03:21:27.015Z,13.98
2019-05-21T03:23:58.961Z,13.13
2019-05-21T03:26:30.625Z,14.25
2019-05-21T03:29:04.465Z,14.10
2019-05-21T03:31:35.978Z,12.50
2019-05-21T03:34:10.191Z,14.25
2019-05-21T03:36:40.148Z,12.35
2019-05-21T03:39:13.107Z,15.98
2019-05-21T03:41:45.002Z,16.32
2019-05-21T03:44:14.860Z,19.32
2019-05-21T03:46:44.878Z,15.28
2019-05-21T03:49:19.014Z,17.82
2019-05-21T03:51:48.684Z,27.37
2019-05-21T03:54:21.020Z,38.63
2019-05-21T03:56:52.645Z,29.02
2019-05-21T03:59:26.134Z,36.95
2019-05-21T04:01:57.446Z,27.13
2019-05-21T04:04:27.550Z,21.12
2019-05-21T04:06:59.103Z,21.85
2019-05-21T04:09:31.813Z,18.55
2019-05-21T04:12:05.145Z,17.98
2019-05-21T04:14:41.745Z,18.05
2019-05-21T04:17:34.692Z,17.50
2019-05-21T04:20:06.006Z,15.50
2019-05-21T04:22:40.842Z,16.15
2019-05-21T04:25:18.120Z,18.60
2019-05-21T04:27:48.067Z,20.27
2019-05-21T04:30:18.289Z,15.05
2019-05-21T04:32:49.500Z,26.40
2019-05-21T04:35:21.162Z,21.10
2019-05-21T04:37:52.704Z,23.57
2019-05-21T04:40:35.322Z,22.95
2019-05-21T04:43:06.984Z,16.40
2019-05-21T04:45:46.215Z,16.40
2019-05-21T04:48:16.043Z,17.90
2019-05-21T04:50:48.801Z,14.80
2019-05-21T04:53:21.506Z,12.73
2019-05-21T04:55:51.453Z,14.07
2019-05-21T04:58:26.655Z,17.70
2019-05-21T05:00:58.582Z,14.68
2019-05-21T05:03:28.679Z,21.37
2019-05-21T05:05:58.745Z,18.60
2019-05-21T05:08:30.311Z,18.45
2019-05-21T05:11:01.515Z,19.05
2019-05-21T05:13:31.853Z,16.87
2019-05-21T05:16:08.793Z,16.85
2019-05-21T05:18:35.280Z,17.37
2019-05-21T05:21:10.097Z,17.90
2019-05-21T05:23:43.418Z,18.90
2019-05-21T05:26:15.240Z,20.27
2019-05-21T05:28:46.174Z,15.00
2019-05-21T05:31:16.018Z,27.13
2019-05-21T05:33:47.131Z,19.10
2019-05-21T05:36:20.541Z,18.48
2019-05-21T05:38:56.121Z,16.15
2019-05-21T05:41:31.967Z,16.00
2019-05-21T05:44:08.027Z,19.15
2019-05-21T05:46:42.590Z,22.40
2019-05-21T05:49:21.907Z,19.70
2019-05-21T05:52:08.773Z,22.07
2019-05-21T05:54:32.852Z,20.17
2019-05-21T05:57:06.974Z,19.00
2019-05-21T05:59:53.462Z,17.75
2019-05-21T06:02:23.567Z,22.87
2019-05-21T06:04:55.153Z,23.27
2019-05-21T06:07:24.878Z,20.95
2019-05-21T06:09:58.346Z,30.80
2019-05-21T06:15:59.532Z,19.60
2019-05-21T06:18:44.177Z,28.05
2019-05-21T06:21:18.017Z,25.12
2019-05-21T06:23:49.287Z,21.75
2019-05-21T06:26:55.735Z,20.20
2019-05-21T06:29:25.658Z,32.05
2019-05-21T06:34:57.615Z,32.70
2019-05-21T06:37:41.646Z,32.70
2019-05-21T06:40:17.041Z,32.83
2019-05-21T06:43:02.687Z,43.75
2019-05-21T06:45:39.349Z,42.62
2019-05-21T06:48:38.796Z,35.25
2019-05-21T06:51:11.980Z,37.75
2019-05-21T06:53:50.879Z,43.38
2019-05-21T06:56:57.657Z,37.65
2019-05-21T07:09:44.994Z,34.95
2019-05-21T07:10:14.554Z,40.03
2019-05-21T07:13:11.838Z,37.40
2019-05-21T07:16:07.259Z,37.35
2019-05-21T07:22:30.696Z,47.43
2019-05-21T07:25:01.258Z,40.85
2019-05-21T07:27:45.972Z,50.55
2019-05-21T07:34:27.873Z,48.33
2019-05-21T07:36:49.498Z,45.63
2019-05-21T07:39:23.562Z,43.83
2019-05-21T07:42:01.032Z,32.58
2019-05-21T07:44:30.855Z,42.58
2019-05-21T07:47:03.422Z,44.38
2019-05-21T07:49:33.451Z,41.58
2019-05-21T07:52:05.423Z,36.95
2019-05-21T07:54:34.902Z,38.20
2019-05-21T07:57:04.800Z,36.80
2019-05-21T07:59:36.382Z,39.88
2019-05-21T08:02:07.617Z,37.70
2019-05-21T08:04:38.978Z,39.03
2019-05-21T08:07:16.256Z,31.90
2019-05-21T08:09:46.069Z,30.02
2019-05-21T08:12:37.452Z,38.42
2019-05-21T08:14:49.665Z,47.58
2019-05-21T08:17:24.339Z,32.65
2019-05-21T08:20:08.477Z,37.25
2019-05-21T08:22:31.774Z,33.92
2019-05-21T08:25:01.637Z,39.08
2019-05-21T08:27:34.939Z,36.45
2019-05-21T08:30:05.377Z,36.00
2019-05-21T08:32:37.371Z,42.30
2019-05-21T08:35:07.302Z,35.03
2019-05-21T08:37:37.114Z,43.00
2019-05-21T08:40:08.200Z,38.75
2019-05-21T08:42:37.969Z,45.67
2019-05-21T08:45:09.863Z,34.65
2019-05-21T08:47:41.173Z,32.60
2019-05-21T08:50:11.874Z,32.78
2019-05-21T08:52:44.408Z,43.87
2019-05-21T08:55:14.295Z,40.33
2019-05-21T08:57:44.143Z,44.50
2019-05-21T09:00:16.715Z,34.48
2019-05-21T09:02:46.430Z,40.10
2019-05-21T09:05:16.315Z,44.08
2019-05-21T09:07:52.325Z,30.48
2019-05-21T09:10:17.792Z,30.92
2019-05-21T09:12:47.540Z,26.50
2019-05-21T09:15:17.607Z,31.10
2019-05-21T09:17:47.265Z,45.28
2019-05-21T09:20:18.983Z,36.15
2019-05-21T09:22:48.669Z,37.73
2019-05-21T09:25:18.465Z,30.23
2019-05-21T09:27:48.723Z,30.65
2019-05-21T09:30:20.091Z,30.60
2019-05-21T09:32:49.821Z,26.40
2019-05-21T09:35:38.526Z,23.77
2019-05-21T09:38:08.320Z,26.93
2019-05-21T09:40:39.212Z,22.17
2019-05-21T09:43:08.921Z,25.85
2019-05-21T09:45:38.715Z,25.68
2019-05-21T09:48:11.780Z,25.35
2019-05-21T09:50:42.814Z,27.75
2019-05-21T09:53:12.553Z,24.63
2019-05-21T09:55:42.220Z,21.68
2019-05-21T09:58:28.866Z,23.73
2019-05-21T10:01:06.366Z,21.42
2019-05-21T10:03:39.287Z,21.80
2019-05-21T10:06:09.021Z,23.87
2019-05-21T10:08:40.144Z,20.10
2019-05-21T10:11:09.905Z,17.75
2019-05-21T10:13:39.542Z,17.42
2019-05-21T10:16:10.886Z,15.23
2019-05-21T10:18:41.722Z,21.02
2019-05-21T10:21:11.420Z,18.52
2019-05-21T10:23:41.226Z,17.85
2019-05-21T10:26:10.990Z,14.40
2019-05-21T10:28:40.640Z,16.15
2019-05-21T10:31:10.254Z,17.23
2019-05-21T10:33:39.830Z,15.95
2019-05-21T10:36:09.671Z,15.05
2019-05-21T10:38:39.282Z,14.18
2019-05-21T10:41:09.078Z,13.62
2019-05-21T10:43:38.711Z,16.55
2019-05-21T10:46:08.729Z,14.05
2019-05-21T10:48:38.473Z,13.85
2019-05-21T10:51:09.764Z,14.07
2019-05-21T10:53:39.583Z,16.37
2019-05-21T10:56:10.333Z,14.13
2019-05-21T10:58:40.040Z,15.20
2019-05-21T11:01:19.237Z,14.55
2019-05-21T11:04:06.475Z,14.63
2019-05-21T11:06:36.139Z,11.03
2019-05-21T11:09:10.353Z,11.68
2019-05-21T11:11:40.020Z,11.53
2019-05-21T11:14:09.705Z,11.22
2019-05-21T11:16:39.373Z,12.85
2019-05-21T11:19:09.046Z,11.85
2019-05-21T11:21:38.734Z,14.33
2019-05-21T11:24:08.523Z,11.03
2019-05-21T11:26:38.196Z,10.30
2019-05-21T11:29:07.919Z,17.62
2019-05-21T11:31:37.716Z,9.93
2019-05-21T11:34:07.354Z,11.88
2019-05-21T11:36:37.148Z,10.03
2019-05-21T11:39:09.222Z,9.58
2019-05-21T11:41:39.003Z,8.50
2019-05-21T11:44:08.740Z,7.42
2019-05-21T11:46:38.511Z,15.68
2019-05-21T11:49:08.162Z,8.38
2019-05-21T11:51:37.855Z,8.75
2019-05-21T11:54:07.628Z,10.63
2019-05-21T11:56:37.275Z,12.05
2019-05-21T11:59:06.998Z,10.13
2019-05-21T12:01:36.729Z,12.10
2019-05-21T12:04:06.396Z,12.68
2019-05-21T12:06:36.057Z,8.18
2019-05-21T12:09:11.409Z,6.75
2019-05-21T12:11:58.217Z,7.17
2019-05-21T12:14:28.091Z,11.03
2019-05-21T12:17:02.251Z,7.42
2019-05-21T12:19:32.087Z,8.03
2019-05-21T12:22:10.660Z,7.42
2019-05-21T12:24:40.317Z,9.33
2019-05-21T12:27:29.654Z,6.62
2019-05-21T12:30:05.097Z,6.83
2019-05-21T12:32:34.823Z,6.30
2019-05-21T12:35:06.854Z,5.60
2019-05-21T12:37:38.520Z,8.98
2019-05-21T12:43:44.860Z,11.63
2019-05-21T12:47:56.605Z,7.08
2019-05-21T12:48:54.652Z,10.35
2019-05-21T12:51:34.824Z,7.97
2019-05-21T12:54:08.243Z,6.20
2019-05-21T12:56:45.937Z,5.78
2019-05-21T12:59:28.471Z,13.32
2019-05-21T13:01:59.616Z,5.80
2019-05-21T13:04:53.122Z,10.00
2019-05-21T13:11:27.767Z,6.90
2019-05-21T13:17:31.739Z,6.67
2019-05-21T13:31:06.827Z,8.83
2019-05-21T13:34:19.079Z,7.20
2019-05-21T13:37:05.416Z,4.92
2019-05-21T13:39:50.260Z,4.20
2019-05-21T13:42:18.254Z,7.50
2019-05-21T13:44:48.344Z,5.80
2019-05-21T13:47:38.370Z,5.50
2019-05-21T13:50:10.550Z,4.80
2019-05-21T13:52:45.445Z,4.75
2019-05-21T13:55:33.775Z,5.33
2019-05-21T13:58:04.061Z,4.65
2019-05-21T14:00:56.855Z,6.05
2019-05-21T14:03:27.097Z,8.03
2019-05-21T14:06:00.705Z,5.55
2019-05-21T14:08:36.190Z,6.20
2019-05-21T14:11:11.557Z,4.42
2019-05-21T14:13:39.213Z,5.28
2019-05-21T14:16:28.159Z,4.92
2019-05-21T14:18:47.611Z,8.28
2019-05-21T14:21:33.369Z,5.47
2019-05-21T14:24:11.548Z,5.10
2019-05-21T14:26:37.378Z,8.05
2019-05-21T14:29:12.459Z,5.40
2019-05-21T14:31:46.587Z,3.87
2019-05-21T14:34:19.871Z,5.67
2019-05-21T14:36:51.393Z,5.42
2019-05-21T14:39:22.837Z,5.00
2019-05-21T14:41:54.794Z,5.92
2019-05-21T14:44:27.689Z,5.70
2019-05-21T14:47:00.002Z,4.17
2019-05-21T14:49:30.266Z,6.65
2019-05-21T14:51:59.995Z,5.53
2019-05-21T14:54:29.705Z,4.33
2019-05-21T14:56:59.702Z,8.45
2019-05-21T14:59:30.858Z,6.58
2019-05-21T15:02:00.652Z,5.00
2019-05-21T15:04:32.092Z,6.35
2019-05-21T15:07:13.176Z,4.00
2019-05-21T15:09:43.352Z,6.33
2019-05-21T15:12:13.034Z,6.00
2019-05-21T15:14:44.736Z,5.53
2019-05-21T15:17:17.069Z,4.80
2019-05-21T15:19:49.416Z,6.37
2019-05-21T15:22:21.065Z,5.30
2019-05-21T15:24:52.649Z,6.12
2019-05-21T15:27:28.014Z,8.20
2019-05-21T15:29:59.930Z,13.35
2019-05-21T15:32:47.143Z,10.85
2019-05-21T15:35:20.780Z,12.43
2019-05-21T15:37:54.541Z,8.58
2019-05-21T15:40:24.731Z,11.00
2019-05-21T15:42:54.384Z,8.43
2019-05-21T15:45:24.111Z,6.58
2019-05-21T15:47:53.850Z,7.78
2019-05-21T15:50:51.763Z,11.18
2019-05-21T15:53:24.280Z,7.95
2019-05-21T15:56:02.008Z,7.47
2019-05-21T15:58:32.067Z,5.58
2019-05-21T16:01:02.230Z,3.72
2019-05-21T16:03:42.757Z,3.87
2019-05-21T16:06:15.599Z,5.45
2019-05-21T16:08:50.604Z,4.72
2019-05-21T16:11:28.395Z,5.50
2019-05-21T16:13:51.934Z,6.78
2019-05-21T16:16:21.733Z,8.00
2019-05-21T16:18:53.591Z,8.68
2019-05-21T16:21:22.849Z,11.95
2019-05-21T16:23:52.802Z,12.07
2019-05-21T16:26:23.457Z,10.88
2019-05-21T16:29:13.286Z,10.93
2019-05-21T16:31:52.265Z,10.40
2019-05-21T16:34:22.086Z,8.78
2019-05-21T16:36:51.911Z,8.45
2019-05-21T16:39:23.841Z,7.95
2019-05-21T16:41:53.658Z,10.60
2019-05-21T16:44:23.265Z,8.45
2019-05-21T16:46:55.264Z,6.55
2019-05-21T16:49:24.993Z,7.42
2019-05-21T16:51:54.838Z,8.90
2019-05-21T16:54:24.650Z,6.75
2019-05-21T16:56:54.466Z,12.18
2019-05-21T16:59:24.197Z,9.50
2019-05-21T17:01:55.170Z,11.43
2019-05-21T17:04:24.872Z,10.48
2019-05-21T17:06:54.546Z,15.90
2019-05-21T17:09:28.146Z,16.25
2019-05-21T17:12:00.185Z,10.80
2019-05-21T17:14:49.850Z,11.48
2019-05-21T17:17:20.052Z,11.90
2019-05-21T17:19:49.811Z,10.03
2019-05-21T17:22:19.630Z,10.08
2019-05-21T17:24:49.354Z,11.20
2019-05-21T17:27:19.056Z,9.00
2019-05-21T17:29:50.779Z,11.15
2019-05-21T17:32:20.355Z,14.23
2019-05-21T17:34:50.220Z,12.20
2019-05-21T17:37:19.882Z,8.75
2019-05-21T17:39:49.714Z,11.95
2019-05-21T17:42:19.569Z,9.30
2019-05-21T17:45:03.967Z,11.80
2019-05-21T17:47:34.073Z,12.95
2019-05-21T17:50:04.098Z,10.85
2019-05-21T17:52:34.011Z,20.02
2019-05-21T17:55:29.249Z,7.60
2019-05-21T17:58:26.601Z,8.23
2019-05-21T18:01:06.429Z,11.20
2019-05-21T18:06:54.824Z,13.20
2019-05-21T18:09:46.935Z,13.88
2019-05-21T18:15:24.927Z,10.72
2019-05-21T18:17:54.997Z,14.63
2019-05-21T18:20:34.683Z,13.95
2019-05-21T18:23:15.898Z,12.28
2019-05-21T18:25:45.914Z,13.30
2019-05-21T18:28:22.989Z,14.00
2019-05-21T18:31:09.196Z,12.40
2019-05-21T18:33:48.834Z,11.38
2019-05-21T18:36:23.532Z,10.53
2019-05-21T18:39:10.888Z,9.60
2019-05-21T18:42:00.590Z,10.20
2019-05-21T18:44:26.529Z,16.40
2019-05-21T18:47:13.121Z,10.25
2019-05-21T18:49:44.144Z,9.15
2019-05-21T18:56:01.634Z,13.80
2019-05-21T18:58:59.166Z,8.80
2019-05-21T19:02:05.063Z,14.10
2019-05-21T19:04:47.225Z,7.58
2019-05-21T19:07:32.004Z,8.40
2019-05-21T19:10:36.404Z,10.25
2019-05-21T19:17:10.216Z,15.00
2019-05-21T19:19:50.564Z,13.05
2019-05-21T19:24:04.648Z,12.45
2019-05-21T19:25:20.960Z,11.40
2019-05-21T19:28:00.887Z,10.05
2019-05-21T19:30:36.013Z,11.45
2019-05-21T19:33:37.734Z,12.40
2019-05-21T19:36:22.775Z,12.47
2019-05-21T19:39:15.121Z,15.60
2019-05-21T19:41:53.931Z,18.40
2019-05-21T19:44:27.225Z,17.15
2019-05-21T19:47:04.145Z,13.48
2019-05-21T19:49:40.510Z,16.60
2019-05-21T19:52:25.267Z,13.18
2019-05-21T19:55:01.487Z,14.05
2019-05-21T19:57:35.234Z,21.45
2019-05-21T20:00:09.343Z,15.38
2019-05-21T20:02:41.298Z,14.75
2019-05-21T20:05:14.050Z,15.43
2019-05-21T20:07:50.046Z,13.78
2019-05-21T20:10:34.100Z,15.13
2019-05-21T20:13:02.939Z,15.60
2019-05-21T20:15:35.669Z,16.52
2019-05-21T20:18:09.232Z,13.60
2019-05-21T20:20:43.275Z,17.67
2019-05-21T20:23:17.168Z,11.12
2019-05-21T20:25:56.550Z,13.65
2019-05-21T20:32:23.500Z,12.10
2019-05-21T20:35:08.773Z,13.48
2019-05-21T20:37:45.226Z,9.53
2019-05-21T20:40:38.492Z,11.30
2019-05-21T20:43:07.600Z,14.50
2019-05-21T20:45:49.665Z,10.93
2019-05-21T20:48:22.036Z,15.88
2019-05-21T20:50:52.181Z,18.17
2019-05-21T20:53:26.624Z,18.52
2019-05-21T20:56:03.720Z,14.60
2019-05-21T20:58:39.927Z,14.53
2019-05-21T21:01:12.395Z,14.43
2019-05-21T21:03:51.143Z,18.95
2019-05-21T21:06:35.314Z,12.82
2019-05-21T21:09:00.042Z,13.72
2019-05-21T21:11:36.969Z,11.55
2019-05-21T21:14:18.649Z,14.13
2019-05-21T21:16:56.157Z,13.75
2019-05-21T21:19:32.818Z,13.08
2019-05-21T21:22:04.907Z,15.15
2019-05-21T21:24:38.047Z,13.32
2019-05-21T21:27:13.064Z,16.10
2019-05-21T21:29:43.108Z,11.45
2019-05-21T21:32:14.404Z,12.78
2019-05-21T21:34:44.510Z,11.88
2019-05-21T21:37:16.386Z,15.20
2019-05-21T21:39:49.672Z,19.15
2019-05-21T21:42:25.334Z,14.47
2019-05-21T21:44:59.817Z,13.08
2019-05-21T21:47:33.436Z,16.60
2019-05-21T21:50:05.331Z,16.20
2019-05-21T21:52:38.570Z,15.23
2019-05-21T21:55:22.348Z,19.73
2019-05-21T21:57:53.436Z,20.75
2019-05-21T22:00:53.303Z,20.27
2019-05-21T22:03:26.477Z,23.95
2019-05-21T22:05:57.862Z,17.12
2019-05-21T22:08:29.830Z,16.42
2019-05-21T22:11:01.744Z,16.62
2019-05-21T22:13:34.053Z,21.25
2019-05-21T22:16:04.274Z,17.05
2019-05-21T22:18:36.485Z,19.32
2019-05-21T22:21:06.520Z,21.52
2019-05-21T22:23:36.362Z,18.80
2019-05-21T22:26:06.264Z,20.95
2019-05-21T22:28:42.345Z,20.88
2019-05-21T22:31:15.766Z,21.50
2019-05-21T22:33:47.073Z,22.37
2019-05-21T22:36:29.568Z,19.98
2019-05-21T22:39:03.322Z,18.92
2019-05-21T22:41:40.037Z,23.02
2019-05-21T22:44:10.356Z,20.77
2019-05-21T22:46:43.247Z,19.17
2019-05-21T22:49:13.308Z,20.27
2019-05-21T22:51:51.822Z,16.85
2019-05-21T22:54:28.473Z,20.68
2019-05-21T22:57:04.207Z,19.60
2019-05-21T22:59:41.546Z,15.70
2019-05-21T23:02:20.972Z,20.43
2019-05-21T23:05:00.069Z,19.42
2019-05-21T23:07:37.547Z,18.60
2019-05-21T23:10:15.057Z,18.87
2019-05-21T23:12:53.195Z,21.60
2019-05-21T23:15:26.917Z,16.85
2019-05-21T23:18:12.038Z,16.97
2019-05-21T23:20:49.739Z,17.15
2019-05-21T23:23:27.584Z,16.93
2019-05-21T23:25:58.869Z,14.63
2019-05-21T23:28:38.229Z,12.82
2019-05-21T23:31:12.872Z,19.98
2019-05-21T23:33:43.641Z,12.93
2019-05-21T23:36:14.905Z,13.13
2019-05-21T23:38:49.644Z,13.72
2019-05-21T23:41:48.147Z,10.03
2019-05-21T23:45:12.480Z,15.60
2019-05-21T23:47:40.237Z,13.70
2019-05-21T23:50:14.671Z,15.90
2019-05-21T23:52:54.273Z,17.53
2019-05-21T23:55:32.657Z,19.35
2019-05-21T23:58:05.928Z,15.50
